createdAt,value
2018-09-29T00:00:44.244Z,2.6
2018-09-29T00:03:44.211Z,2.8
2018-09-29T00:06:44.080Z,2.7
2018-09-29T00:09:44.005Z,2.6
2018-09-29T00:12:44.115Z,2.5
2018-09-29T00:15:44.111Z,2.8
2018-09-29T00:18:44.100Z,2.7
2018-09-29T00:21:44.182Z,2.6
2018-09-29T00:24:44.362Z,2.5
2018-09-29T00:27:44.060Z,2.4
2018-09-29T00:30:44.151Z,2.7
2018-09-29T00:33:44.184Z,2.6
2018-09-29T00:36:44.030Z,2.4
2018-09-29T00:39:44.281Z,2.4
2018-09-29T00:42:44.124Z,2.3
2018-09-29T00:45:44.253Z,2.4
2018-09-29T00:48:44.279Z,2.6
2018-09-29T00:51:44.078Z,2.5
2018-09-29T00:54:44.161Z,2.4
2018-09-29T00:57:44.165Z,2.3
2018-09-29T01:00:44.403Z,2.4
2018-09-29T01:03:44.106Z,2.4
2018-09-29T01:06:44.197Z,2.3
2018-09-29T01:09:44.133Z,2.4
2018-09-29T01:12:43.939Z,2.5
2018-09-29T01:15:44.103Z,2.6
2018-09-29T01:18:44.506Z,2.4
2018-09-29T01:21:43.939Z,2.4
2018-09-29T01:24:44.043Z,2.2
2018-09-29T01:27:44.330Z,2.2
2018-09-29T01:30:44.038Z,2.3
2018-09-29T01:33:44.307Z,2.5
2018-09-29T01:36:44.350Z,2.4
2018-09-29T01:39:44.157Z,2.3
2018-09-29T01:42:44.084Z,2.2
2018-09-29T01:45:44.316Z,2.3
2018-09-29T01:48:44.289Z,2.4
2018-09-29T01:51:44.253Z,2.2
2018-09-29T01:54:43.999Z,2.4
2018-09-29T01:57:44.034Z,2.5
2018-09-29T02:00:44.543Z,2.7
2018-09-29T02:03:44.092Z,2.4
2018-09-29T02:06:44.236Z,2.3
2018-09-29T02:09:44.492Z,2.6
2018-09-29T02:12:44.120Z,2.5
2018-09-29T02:15:44.314Z,2.3
2018-09-29T02:18:44.322Z,2.3
2018-09-29T02:21:44.108Z,2.2
2018-09-29T02:24:44.138Z,2.2
2018-09-29T02:27:43.952Z,2.1
2018-09-29T02:30:43.989Z,2.2
2018-09-29T02:33:43.996Z,2.1
2018-09-29T02:36:44.081Z,2.2
2018-09-29T02:39:44.118Z,2.1
2018-09-29T02:42:44.022Z,2.2
2018-09-29T02:45:44.063Z,2.4
2018-09-29T02:48:44.032Z,2.3
2018-09-29T02:51:43.967Z,2.4
2018-09-29T02:54:43.947Z,2.2
2018-09-29T02:57:44.002Z,2.3
2018-09-29T03:00:44.107Z,2.2
2018-09-29T03:03:44.090Z,2.3
2018-09-29T03:06:44.184Z,2.3
2018-09-29T03:09:44.075Z,2.3
2018-09-29T03:12:44.010Z,2.2
2018-09-29T03:15:43.998Z,2.2
2018-09-29T03:18:44.237Z,2.4
2018-09-29T03:21:43.951Z,2
2018-09-29T03:24:43.963Z,2
2018-09-29T03:27:44.334Z,2.2
2018-09-29T03:30:44.105Z,2.1
2018-09-29T03:33:44.042Z,1.9
2018-09-29T03:36:44.000Z,2
2018-09-29T03:39:44.201Z,2
2018-09-29T03:42:44.094Z,2.3
2018-09-29T03:45:44.193Z,2.2
2018-09-29T03:48:44.043Z,2
2018-09-29T03:51:44.208Z,2.1
2018-09-29T03:54:44.116Z,2.1
2018-09-29T03:57:44.550Z,2
2018-09-29T04:00:44.022Z,2.1
2018-09-29T04:03:43.870Z,1.9
2018-09-29T04:06:44.113Z,2
2018-09-29T04:09:44.095Z,1.9
2018-09-29T04:12:44.147Z,2.1
2018-09-29T04:15:44.073Z,2
2018-09-29T04:18:44.010Z,1.9
2018-09-29T04:21:44.098Z,1.9
2018-09-29T04:24:44.187Z,2
2018-09-29T04:27:44.192Z,2.1
2018-09-29T04:30:44.196Z,2
2018-09-29T04:33:44.261Z,2.1
2018-09-29T04:36:44.041Z,2
2018-09-29T04:39:44.143Z,1.8
2018-09-29T04:42:44.325Z,1.8
2018-09-29T04:45:43.926Z,1.9
2018-09-29T04:48:44.237Z,1.8
2018-09-29T04:51:43.987Z,1.8
2018-09-29T04:54:43.974Z,1.8
2018-09-29T04:57:44.349Z,1.8
2018-09-29T05:00:44.161Z,2.3
2018-09-29T05:03:44.098Z,2.1
2018-09-29T05:06:43.912Z,2
2018-09-29T05:09:44.156Z,1.8
2018-09-29T05:12:43.961Z,1.8
2018-09-29T05:15:44.315Z,1.8
2018-09-29T05:18:43.918Z,1.9
2018-09-29T05:21:43.907Z,2
2018-09-29T05:24:44.090Z,1.8
2018-09-29T05:27:44.025Z,2
2018-09-29T05:30:44.845Z,1.8
2018-09-29T05:33:44.146Z,1.6
2018-09-29T05:36:44.230Z,1.9
2018-09-29T05:39:43.930Z,1.7
2018-09-29T05:42:43.867Z,1.8
2018-09-29T05:45:44.078Z,1.7
2018-09-29T05:48:43.928Z,1.7
2018-09-29T05:51:44.155Z,2
2018-09-29T05:54:43.906Z,1.8
2018-09-29T05:57:44.389Z,1.7
2018-09-29T06:00:45.733Z,1.7
2018-09-29T06:03:43.925Z,1.7
2018-09-29T06:06:43.909Z,1.7
2018-09-29T06:09:44.057Z,1.6
2018-09-29T06:12:43.979Z,1.5
2018-09-29T06:15:44.236Z,1.5
2018-09-29T06:18:44.299Z,1.7
2018-09-29T06:21:44.031Z,1.7
2018-09-29T06:24:43.864Z,1.7
2018-09-29T06:27:44.123Z,1.6
2018-09-29T06:30:44.049Z,1.6
2018-09-29T06:33:43.974Z,1.6
2018-09-29T06:36:45.228Z,1.7
2018-09-29T06:39:44.169Z,1.6
2018-09-29T06:42:44.184Z,1.6
2018-09-29T06:45:44.004Z,1.6
2018-09-29T06:48:44.049Z,1.6
2018-09-29T06:51:43.846Z,1.7
2018-09-29T06:54:44.175Z,1.7
2018-09-29T06:57:43.864Z,1.6
2018-09-29T07:00:43.963Z,1.5
2018-09-29T07:03:44.087Z,1.6
2018-09-29T07:06:44.010Z,1.6
2018-09-29T07:09:43.986Z,1.6
2018-09-29T07:12:44.399Z,1.7
2018-09-29T07:15:43.959Z,1.8
2018-09-29T07:18:43.953Z,1.6
2018-09-29T07:21:46.000Z,1.6
2018-09-29T07:24:44.165Z,1.6
2018-09-29T07:27:43.930Z,1.6
2018-09-29T07:30:44.043Z,1.5
2018-09-29T07:33:44.184Z,1.5
2018-09-29T07:36:43.900Z,1.5
2018-09-29T07:39:44.317Z,1.7
2018-09-29T07:42:43.905Z,1.6
2018-09-29T07:45:44.005Z,1.8
2018-09-29T07:48:44.389Z,1.7
2018-09-29T07:51:44.066Z,1.6
2018-09-29T07:54:45.222Z,1.6
2018-09-29T07:57:44.770Z,1.5
2018-09-29T08:00:43.888Z,1.7
2018-09-29T08:03:44.151Z,1.8
2018-09-29T08:06:43.853Z,1.9
2018-09-29T08:09:44.246Z,1.8
2018-09-29T08:12:43.915Z,1.6
2018-09-29T08:15:43.924Z,1.6
2018-09-29T08:18:44.211Z,2.7
2018-09-29T08:21:43.975Z,4.5
2018-09-29T08:24:43.925Z,6.4
2018-09-29T08:27:44.430Z,6.9
2018-09-29T08:30:44.024Z,6.2
2018-09-29T08:33:44.138Z,5.5
2018-09-29T08:36:44.054Z,5.8
2018-09-29T08:39:44.001Z,5.4
2018-09-29T08:42:44.157Z,6.8
2018-09-29T08:45:44.040Z,5.8
2018-09-29T08:48:43.840Z,5.5
2018-09-29T08:51:43.879Z,4.9
2018-09-29T08:54:43.960Z,4.9
2018-09-29T08:57:43.938Z,4.1
2018-09-29T09:00:43.971Z,5.8
2018-09-29T09:03:43.908Z,4.7
2018-09-29T09:06:44.113Z,4.3
2018-09-29T09:09:44.147Z,3.4
2018-09-29T09:12:44.045Z,3.7
2018-09-29T09:15:44.200Z,3.7
2018-09-29T09:18:43.849Z,3.4
2018-09-29T09:21:44.135Z,3.2
2018-09-29T09:24:43.997Z,3.7
2018-09-29T09:27:44.303Z,3.2
2018-09-29T09:30:43.961Z,3
2018-09-29T09:33:43.979Z,3.2
2018-09-29T09:36:43.827Z,3.1
2018-09-29T09:39:43.899Z,3
2018-09-29T09:42:44.087Z,2.9
2018-09-29T09:45:43.841Z,2.5
2018-09-29T09:51:44.166Z,3.2
2018-09-29T09:57:44.006Z,3
2018-09-29T10:00:44.000Z,3.1
2018-09-29T10:03:43.980Z,2.6
2018-09-29T10:06:43.847Z,3.2
2018-09-29T10:12:43.973Z,2.5
2018-09-29T10:15:44.067Z,2.3
2018-09-29T10:18:43.878Z,2.2
2018-09-29T10:21:44.266Z,2.8
2018-09-29T10:24:44.110Z,2.9
2018-09-29T10:30:44.451Z,2.5
2018-09-29T10:33:43.999Z,2.4
2018-09-29T10:36:43.915Z,2.5
2018-09-29T10:39:44.067Z,2.5
2018-09-29T10:42:43.877Z,2.6
2018-09-29T10:51:43.903Z,3.8
2018-09-29T10:54:43.878Z,3.2
2018-09-29T10:57:43.998Z,2.6
2018-09-29T11:00:43.857Z,2.5
2018-09-29T11:06:44.012Z,2.2
2018-09-29T11:09:44.302Z,2.2
2018-09-29T11:12:43.932Z,2.3
2018-09-29T11:15:43.927Z,2.2
2018-09-29T11:21:43.858Z,2.6
2018-09-29T11:27:45.743Z,3.8
2018-09-29T11:30:43.973Z,3.2
2018-09-29T11:33:43.922Z,2.7
2018-09-29T11:36:44.061Z,2.5
2018-09-29T11:39:43.952Z,2.6
2018-09-29T11:45:43.994Z,3.6
2018-09-29T11:48:44.036Z,3
2018-09-29T11:51:43.887Z,3.3
2018-09-29T11:54:43.999Z,3.6
2018-09-29T12:00:44.142Z,3.2
2018-09-29T12:06:43.946Z,2.7
2018-09-29T12:09:43.894Z,2.9
2018-09-29T12:15:43.810Z,2.6
2018-09-29T12:18:43.901Z,2.9
2018-09-29T12:21:43.847Z,2.9
2018-09-29T12:30:01.647Z,2.3
2018-09-29T12:33:01.189Z,2.3
2018-09-29T12:36:00.974Z,2.5
2018-09-29T12:39:00.874Z,2.2
2018-09-29T12:42:01.080Z,3.6
2018-09-29T12:45:01.148Z,3.7
2018-09-29T12:48:01.112Z,3.7
2018-09-29T12:51:00.776Z,3.7
2018-09-29T12:54:00.792Z,4.3
2018-09-29T12:57:00.898Z,4.3
2018-09-29T13:00:01.035Z,4.3
2018-09-29T13:03:01.030Z,3.8
2018-09-29T13:06:01.064Z,4.2
2018-09-29T13:09:01.399Z,4.2
2018-09-29T13:12:01.148Z,3.8
2018-09-29T13:15:00.934Z,4.4
2018-09-29T13:18:00.856Z,3.8
2018-09-29T13:21:01.050Z,4.9
2018-09-29T13:24:01.196Z,5
2018-09-29T13:27:01.185Z,4.8
2018-09-29T13:30:01.401Z,3.8
2018-09-29T13:33:01.039Z,3.7
2018-09-29T13:36:00.848Z,3.9
2018-09-29T13:39:00.948Z,3.5
2018-09-29T13:42:01.003Z,3.2
2018-09-29T13:45:01.172Z,2.7
2018-09-29T13:48:00.936Z,3
2018-09-29T13:51:00.881Z,2.8
2018-09-29T13:54:00.881Z,2.8
2018-09-29T13:57:01.014Z,3.4
2018-09-29T14:00:00.804Z,2.9
2018-09-29T14:03:00.904Z,3.2
2018-09-29T14:06:00.973Z,3
2018-09-29T14:09:00.750Z,2.6
2018-09-29T14:12:00.986Z,2.7
2018-09-29T14:15:00.870Z,2.6
2018-09-29T14:18:00.778Z,3.1
2018-09-29T14:21:01.002Z,2.8
2018-09-29T14:24:01.306Z,2.7
2018-09-29T14:27:00.989Z,4
2018-09-29T14:30:01.975Z,4.1
2018-09-29T14:33:01.286Z,4.7
2018-09-29T14:36:00.837Z,4.5
2018-09-29T14:39:00.680Z,4.8
2018-09-29T14:42:03.122Z,4
2018-09-29T14:45:01.152Z,3.6
2018-09-29T14:48:00.832Z,3.5
2018-09-29T14:51:01.291Z,3.1
2018-09-29T14:54:01.047Z,3.4
2018-09-29T14:57:00.880Z,4.2
2018-09-29T15:00:00.996Z,4.4
2018-09-29T15:03:00.744Z,3.4
2018-09-29T15:06:00.876Z,3.1
2018-09-29T15:09:00.950Z,2.6
2018-09-29T15:12:00.779Z,3.1
2018-09-29T15:15:01.224Z,3.5
2018-09-29T15:18:01.028Z,4
2018-09-29T15:21:00.795Z,4.1
2018-09-29T15:24:00.649Z,3.9
2018-09-29T15:27:00.845Z,3.7
2018-09-29T15:30:01.260Z,4.4
2018-09-29T15:33:00.996Z,4.5
2018-09-29T15:36:01.361Z,3.4
2018-09-29T15:39:00.864Z,3.8
2018-09-29T15:42:01.094Z,3.6
2018-09-29T15:45:02.533Z,4.2
2018-09-29T15:48:00.956Z,3.7
2018-09-29T15:51:00.853Z,4.2
2018-09-29T15:54:00.832Z,4.2
2018-09-29T15:56:01.121Z,3.4
2018-09-29T16:03:25.150Z,4.8
2018-09-29T16:06:25.192Z,4.3
2018-09-29T16:09:24.980Z,4
2018-09-29T16:12:25.076Z,3.6
2018-09-29T16:15:24.881Z,3.9
2018-09-29T16:18:25.050Z,4.3
2018-09-29T16:21:24.961Z,6.9
2018-09-29T16:24:25.154Z,5.7
2018-09-29T16:27:24.954Z,4.9
2018-09-29T16:30:24.925Z,4.4
2018-09-29T16:33:25.113Z,5.1
2018-09-29T16:36:24.836Z,4.5
2018-09-29T16:39:24.801Z,5.1
2018-09-29T16:42:24.916Z,4
2018-09-29T16:45:25.090Z,5.2
2018-09-29T16:48:34.826Z,4.3
2018-09-29T16:51:34.807Z,3.9
2018-09-29T16:54:35.317Z,3.6
2018-09-29T16:57:35.430Z,3.2
2018-09-29T17:00:34.974Z,2.8
2018-09-29T17:03:25.951Z,2.5
2018-09-29T17:06:24.928Z,2.1
2018-09-29T17:09:24.972Z,2.3
2018-09-29T17:12:24.822Z,3
2018-09-29T17:15:25.114Z,2.7
2018-09-29T17:18:24.811Z,2.7
2018-09-29T17:21:24.912Z,2.7
2018-09-29T17:24:24.707Z,3.7
2018-09-29T17:27:25.112Z,3.1
2018-09-29T17:30:24.844Z,2.9
2018-09-29T17:33:24.951Z,2.7
2018-09-29T17:36:24.963Z,2.7
2018-09-29T17:39:25.523Z,15.5
2018-09-29T17:42:24.932Z,9.4
2018-09-29T17:45:26.050Z,6.1
2018-09-29T17:48:24.987Z,4.8
2018-09-29T17:51:25.629Z,4.2
2018-09-29T17:54:24.763Z,4.3
2018-09-29T17:57:24.910Z,3.5
2018-09-29T18:00:24.855Z,4.6
2018-09-29T18:03:25.006Z,4.2
2018-09-29T18:06:24.868Z,3.6
2018-09-29T18:09:24.991Z,3.3
2018-09-29T18:12:24.964Z,2.7
2018-09-29T18:15:24.893Z,2.5
2018-09-29T18:18:24.809Z,2.2
2018-09-29T18:21:25.955Z,2.6
2018-09-29T18:24:25.065Z,2.1
2018-09-29T18:27:24.722Z,2
2018-09-29T18:30:24.891Z,2.3
2018-09-29T18:33:25.040Z,3.1
2018-09-29T18:36:24.872Z,3.1
2018-09-29T18:39:25.117Z,3.6
2018-09-29T18:42:25.067Z,4.1
2018-09-29T18:45:25.032Z,4
2018-09-29T18:48:24.892Z,4
2018-09-29T18:51:25.235Z,7.4
2018-09-29T18:54:25.220Z,6.8
2018-09-29T18:57:25.910Z,6
2018-09-29T19:00:24.896Z,5.6
2018-09-29T19:03:25.224Z,4.6
2018-09-29T19:06:25.279Z,4.3
2018-09-29T19:09:25.172Z,4.1
2018-09-29T19:12:25.286Z,4.6
2018-09-29T19:15:24.911Z,5.1
2018-09-29T19:18:24.836Z,5
2018-09-29T19:21:25.144Z,4.6
2018-09-29T19:24:24.754Z,5.1
2018-09-29T19:27:24.891Z,6.1
2018-09-29T19:30:24.928Z,5.8
2018-09-29T19:33:24.841Z,5.6
2018-09-29T19:39:58.775Z,5.8
2018-09-29T19:42:59.340Z,6.3
2018-09-29T19:45:58.830Z,6.2
2018-09-29T19:48:58.756Z,7.1
2018-09-29T19:51:59.322Z,5.4
2018-09-29T19:54:58.906Z,5.8
2018-09-29T19:57:59.054Z,5.7
2018-09-29T20:00:58.986Z,6.1
2018-09-29T20:03:58.786Z,5.6
2018-09-29T20:06:59.132Z,4.7
2018-09-29T20:09:59.586Z,5.9
2018-09-29T20:12:59.257Z,5.3
2018-09-29T20:15:59.304Z,5.3
2018-09-29T20:18:58.942Z,5.1
2018-09-29T20:21:58.833Z,4.7
2018-09-29T20:24:59.051Z,4.5
2018-09-29T20:27:59.273Z,4
2018-09-29T20:30:58.937Z,4.2
2018-09-29T20:33:59.079Z,5
2018-09-29T20:36:59.124Z,5.7
2018-09-29T20:39:58.889Z,5.8
2018-09-29T20:42:58.876Z,4.6
2018-09-29T20:45:59.138Z,4.4
2018-09-29T20:48:59.132Z,4.8
2018-09-29T20:51:58.999Z,4.7
2018-09-29T20:54:58.922Z,5.1
2018-09-29T20:57:59.064Z,4.4
2018-09-29T21:00:58.980Z,3.7
2018-09-29T21:03:59.022Z,4.7
2018-09-29T21:06:58.919Z,4.3
2018-09-29T21:09:58.782Z,4.2
2018-09-29T21:13:00.807Z,3.7
2018-09-29T21:15:59.189Z,3.2
2018-09-29T21:18:58.725Z,2.9
2018-09-29T21:21:58.990Z,2.9
2018-09-29T21:24:59.088Z,3.1
2018-09-29T21:27:58.851Z,3.2
2018-09-29T21:30:58.942Z,4.1
2018-09-29T21:33:59.003Z,3.6
2018-09-29T21:36:58.977Z,3.3
2018-09-29T21:39:58.770Z,3.2
2018-09-29T21:42:59.286Z,3.9
2018-09-29T21:45:59.061Z,3.8
2018-09-29T21:48:58.977Z,3.6
2018-09-29T21:51:59.176Z,3.4
2018-09-29T21:54:58.820Z,3
2018-09-29T21:57:59.281Z,3.4
2018-09-29T22:00:59.012Z,3.8
2018-09-29T22:03:58.927Z,3.4
2018-09-29T22:06:58.729Z,3
2018-09-29T22:09:59.016Z,2.7
2018-09-29T22:12:59.276Z,2.8
2018-09-29T22:15:58.833Z,2.8
2018-09-29T22:18:58.944Z,2.7
2018-09-29T22:21:58.789Z,2.7
2018-09-29T22:24:59.012Z,3.1
2018-09-29T22:27:58.727Z,2.6
2018-09-29T22:30:59.132Z,2.7
2018-09-29T22:33:58.988Z,2.4
2018-09-29T22:36:58.948Z,2.5
2018-09-29T22:39:59.613Z,2.5
2018-09-29T22:42:58.896Z,2.4
2018-09-29T22:45:58.756Z,2.4
2018-09-29T22:48:58.771Z,2.4
2018-09-29T22:51:58.711Z,2.7
2018-09-29T22:54:58.918Z,2.5
2018-09-29T22:57:58.797Z,2.4
2018-09-29T23:00:58.954Z,2.7
2018-09-29T23:03:58.902Z,2.4
2018-09-29T23:06:58.810Z,2.2
2018-09-29T23:09:58.783Z,2.1
2018-09-29T23:12:59.249Z,2.3
2018-09-29T23:15:59.061Z,2.2
2018-09-29T23:18:59.958Z,2.5
2018-09-29T23:21:58.993Z,2.5
2018-09-29T23:24:58.691Z,3.2
2018-09-29T23:27:58.800Z,3
2018-09-29T23:30:58.914Z,2.8
2018-09-29T23:33:59.039Z,2.6
2018-09-29T23:36:59.095Z,2.6
2018-09-29T23:39:58.969Z,2.6
2018-09-29T23:42:58.888Z,2.6
2018-09-29T23:45:58.833Z,2.3
2018-09-29T23:48:59.073Z,2
2018-09-29T23:51:58.770Z,2
2018-09-29T23:54:58.836Z,1.8
2018-09-29T23:57:58.715Z,1.9
